Time;durP1;ratioP1;P1;durP2;ratioP2;P2;SDS_P1;SDS_P2;PMS_P1;PMS_P2;Temp;Humidity;BMP_temperature;BMP_pressure;BME280_temperature;BME280_humidity;BME280_pressure;Samples;Min_cycle;Max_cycle;Signal;HPM_P1;HPM_P2
2024/01/11 00:02:33;;;;;;;18.05;7.10;;;;;;;-5.00;73.94;103100.22;4938843;29;20083;-80
2024/01/11 00:05:54;;;;;;;20.02;8.15;;;;;;;-4.89;74.92;103123.91;4919410;29;20032;-80
2024/01/11 00:18:13;;;;;;;23.60;9.77;;;;;;;-5.00;76.65;103133.16;4938093;29;20046;-81
2024/01/11 00:20:47;;;;;;;23.85;10.43;;;;;;;-5.14;76.62;103119.31;4938760;29;20023;-81
2024/01/11 00:23:37;;;;;;;24.38;10.90;;;;;;;-5.04;77.08;103137.06;4938550;29;20547;-80
2024/01/11 00:33:30;;;;;;;27.27;13.05;;;;;;;-5.09;76.62;103133.25;4930493;29;20088;-80
2024/01/11 00:39:23;;;;;;;24.75;11.10;;;;;;;-5.19;76.76;103118.94;4935903;29;20038;-80
2024/01/11 00:55:47;;;;;;;32.72;15.95;;;;;;;-5.40;77.90;103102.75;4879603;29;20077;-81
2024/01/11 00:59:01;;;;;;;31.90;15.10;;;;;;;-5.28;78.56;103121.53;4879276;29;20048;-81
2024/01/11 01:04:57;;;;;;;26.55;13.02;;;;;;;-5.43;78.61;103099.97;4879005;29;20425;-80
2024/01/11 01:18:02;;;;;;;26.52;12.65;;;;;;;-5.27;78.08;103138.50;4858111;29;20045;-81
2024/01/11 01:31:15;;;;;;;20.73;9.02;;;;;;;-5.20;78.72;103145.00;4915436;29;20988;-80
2024/01/11 01:48:24;;;;;;;18.70;7.90;;;;;;;-5.46;77.91;103148.69;4936361;29;20606;-80
2024/01/11 01:53:59;;;;;;;18.88;7.10;;;;;;;-5.33;78.36;103177.59;4933241;26;20055;-80
2024/01/11 01:56:56;;;;;;;18.02;6.93;;;;;;;-5.34;78.39;103181.75;4936431;29;20062;-80
2024/01/11 02:06:59;;;;;;;16.40;6.22;;;;;;;-5.38;77.92;103174.66;4937365;29;20097;-80
2024/01/11 02:13:44;;;;;;;14.63;5.32;;;;;;;-5.34;77.91;103165.69;4936412;29;20508;-80
2024/01/11 02:29:39;;;;;;;17.33;6.30;;;;;;;-5.51;77.91;103161.69;4858958;29;20053;-81
2024/01/11 02:32:23;;;;;;;20.33;8.25;;;;;;;-5.48;78.91;103172.94;4858291;29;20402;-80
2024/01/11 02:59:25;;;;;;;22.17;9.63;;;;;;;-5.68;79.63;103182.97;4858145;29;20061;-80
2024/01/11 03:04:56;;;;;;;21.45;8.57;;;;;;;-5.87;79.72;103156.03;4858839;29;19923;-80
2024/01/11 03:16:16;;;;;;;18.92;7.10;;;;;;;-5.76;79.26;103174.69;5213664;23;20047;-80
2024/01/11 03:19:56;;;;;;;;;;;;;;;;;;;;;
2024/01/11 03:22:51;;;;;;;18.55;7.15;;;;;;;-5.77;78.70;103170.38;4855376;29;20049;-80
2024/01/11 03:28:44;;;;;;;22.95;9.95;;;;;;;-5.80;79.22;103167.59;4857374;29;20060;-80
2024/01/11 03:35:50;;;;;;;;;;;;;;;;;;;;;
2024/01/11 03:48:12;;;;;;;20.60;8.27;;;;;;;-6.13;79.42;103131.88;4953705;29;20589;-79
2024/01/11 03:54:04;;;;;;;18.60;7.28;;;;;;;-6.10;79.40;103144.78;4954781;29;20132;-80
2024/01/11 03:56:45;;;;;;;19.40;7.75;;;;;;;-6.07;79.51;103147.56;4953651;29;20456;-80
2024/01/11 03:59:22;;;;;;;18.23;6.78;;;;;;;-6.00;79.64;103173.44;4954564;29;20023;-79
2024/01/11 04:02:03;;;;;;;18.33;6.95;;;;;;;-6.04;79.36;103159.63;4952955;29;20079;-80
2024/01/11 04:07:19;;;;;;;16.52;6.55;;;;;;;-6.02;79.31;103155.56;4954292;29;20102;-79
2024/01/11 04:09:54;;;;;;;17.40;6.90;;;;;;;-6.03;79.45;103145.31;4952001;29;20054;-79
2024/01/11 04:12:20;;;;;;;18.23;6.88;;;;;;;-6.05;79.46;103163.78;4952028;29;20031;-80
2024/01/11 04:14:45;;;;;;;15.07;5.88;;;;;;;-6.13;79.65;103173.94;4952888;29;20030;-80
2024/01/11 04:17:26;;;;;;;17.25;6.30;;;;;;;-6.14;79.77;103185.69;4953625;29;20070;-80
2024/01/11 04:19:51;;;;;;;16.42;6.60;;;;;;;-6.15;80.90;103191.50;4954082;29;20476;-79
2024/01/11 04:22:46;;;;;;;18.05;6.45;;;;;;;-6.05;80.15;103211.81;4954087;29;20090;-80
2024/01/11 04:25:37;;;;;;;16.25;6.43;;;;;;;-6.07;80.41;103203.19;4956764;29;20027;-79
2024/01/11 04:28:32;;;;;;;22.48;9.57;;;;;;;-6.13;82.19;103204.28;4898575;29;20045;-80
2024/01/11 04:31:35;;;;;;;22.92;9.02;;;;;;;-6.14;81.07;103203.41;4897796;29;20033;-80
2024/01/11 04:34:15;;;;;;;20.92;7.80;;;;;;;-6.32;80.97;103177.34;4898522;29;20128;-80
2024/01/11 04:36:40;;;;;;;20.45;8.30;;;;;;;-6.26;80.70;103210.78;4898086;29;20233;-80
2024/01/11 04:39:07;;;;;;;21.48;9.00;;;;;;;-6.21;81.95;103233.94;4987541;23;20520;-80
2024/01/11 04:41:35;;;;;;;20.08;8.77;;;;;;;-6.23;81.79;103233.78;5005210;23;20063;-80
2024/01/11 04:44:03;;;;;;;19.17;7.80;;;;;;;-6.27;81.57;103223.25;4937678;29;20035;-79
2024/01/11 04:46:37;;;;;;;20.48;7.93;;;;;;;-6.26;81.33;103209.84;4938110;29;20032;-80
2024/01/11 04:49:03;;;;;;;24.35;10.23;;;;;;;-6.37;83.65;103193.72;4938194;29;20475;-80
2024/01/11 04:51:28;;;;;;;22.90;9.20;;;;;;;-6.36;82.24;103203.97;4937620;29;20115;-80
2024/01/11 04:53:57;;;;;;;18.75;7.82;;;;;;;-6.30;81.90;103218.81;4937742;29;20087;-79
2024/01/11 04:56:22;;;;;;;18.70;7.45;;;;;;;-6.31;82.86;103218.69;4938100;29;20027;-80
2024/01/11 04:58:47;;;;;;;18.30;7.20;;;;;;;-6.32;82.14;103217.75;4958214;23;20057;-80
2024/01/11 05:01:14;;;;;;;18.70;7.07;;;;;;;-6.31;82.33;103211.09;4957254;29;20126;-80
2024/01/11 05:03:39;;;;;;;21.15;9.10;;;;;;;-6.37;84.16;103216.47;4957009;29;20489;-80
2024/01/11 05:06:05;;;;;;;21.92;8.95;;;;;;;-6.39;83.34;103212.91;4956457;29;20031;-80
2024/01/11 05:08:30;;;;;;;20.08;7.95;;;;;;;-6.37;82.99;103219.88;4957080;29;20019;-80
2024/01/11 05:10:58;;;;;;;18.65;7.38;;;;;;;-6.37;82.60;103226.59;4956308;29;20472;-80
2024/01/11 05:13:24;;;;;;;16.85;6.80;;;;;;;-6.39;82.70;103228.94;4956295;29;20081;-80
2024/01/11 05:15:49;;;;;;;19.15;7.18;;;;;;;-6.43;81.80;103221.84;4957007;29;20027;-79
2024/01/11 05:18:14;;;;;;;20.20;7.50;;;;;;;-6.39;82.86;103231.47;4956792;29;20106;-80
2024/01/11 05:20:40;;;;;;;21.48;8.20;;;;;;;-6.42;83.80;103230.31;4955806;29;20079;-79
2024/01/11 05:23:05;;;;;;;21.95;8.18;;;;;;;-6.38;82.48;103233.25;4956670;29;20495;-80
2024/01/11 05:25:33;;;;;;;18.38;7.20;;;;;;;-6.36;82.33;103239.34;4956847;29;20051;-79
2024/01/11 05:28:02;;;;;;;19.25;8.15;;;;;;;-6.37;81.80;103237.56;4955829;29;20383;-79
2024/01/11 05:30:33;;;;;;;22.20;8.93;;;;;;;-6.21;81.71;103244.03;4956036;29;20039;-79
2024/01/11 05:32:58;;;;;;;19.92;9.07;;;;;;;-6.39;82.19;103243.22;4956948;29;20431;-79
2024/01/11 05:35:24;;;;;;;22.35;9.10;;;;;;;-6.41;83.21;103253.19;4954613;28;20122;-80
2024/01/11 05:37:50;;;;;;;21.50;8.73;;;;;;;-6.45;84.42;103251.13;4955777;29;20023;-80
2024/01/11 05:40:15;;;;;;;19.55;7.93;;;;;;;-6.45;83.78;103268.81;4955210;29;20031;-80
2024/01/11 05:42:40;;;;;;;23.13;9.77;;;;;;;-6.48;84.61;103272.72;4956216;29;20034;-80
2024/01/11 05:45:06;;;;;;;20.20;8.45;;;;;;;-6.70;83.50;103243.78;4962986;23;20105;-80
2024/01/11 05:48:10;;;;;;;19.63;8.38;;;;;;;-6.60;84.60;103244.63;4955010;29;20038;-80
2024/01/11 05:50:44;;;;;;;19.38;7.55;;;;;;;-6.73;83.51;103210.66;4915797;29;20138;-80
2024/01/11 05:53:20;;;;;;;17.50;7.00;;;;;;;-6.68;82.73;103222.09;4955972;29;20047;-80
2024/01/11 05:55:54;;;;;;;17.45;6.63;;;;;;;-6.64;82.46;103222.38;4955587;29;20027;-80
2024/01/11 05:58:28;;;;;;;18.58;6.97;;;;;;;-6.71;82.59;103219.28;4956260;29;20027;-80
2024/01/11 06:00:56;;;;;;;18.80;6.93;;;;;;;-6.52;83.27;103257.25;4955427;29;20480;-80
2024/01/11 06:03:22;;;;;;;16.55;6.43;;;;;;;-6.51;82.76;103255.59;4946961;29;20051;-80
2024/01/11 06:05:47;;;;;;;18.10;6.65;;;;;;;-6.67;83.07;103244.06;4955322;29;20023;-80
2024/01/11 06:08:30;;;;;;;16.48;6.45;;;;;;;-6.62;83.15;103261.28;4955838;29;20015;-80
2024/01/11 06:11:04;;;;;;;17.05;6.43;;;;;;;-6.72;82.99;103255.38;4955494;29;20149;-79
2024/01/11 06:13:41;;;;;;;17.90;6.90;;;;;;;-6.61;83.29;103281.66;4955924;28;20037;-79
2024/01/11 06:16:25;;;;;;;16.17;6.00;;;;;;;-6.75;82.94;103252.56;4955071;29;20050;-80
2024/01/11 06:18:53;;;;;;;15.40;5.95;;;;;;;-6.75;83.28;103247.50;4955386;29;20034;-79
2024/01/11 06:21:25;;;;;;;15.68;5.85;;;;;;;-6.75;83.21;103234.88;4955396;29;20412;-79
2024/01/11 06:24:03;;;;;;;14.32;5.68;;;;;;;-6.68;82.94;103246.44;4954577;29;20428;-79
2024/01/11 06:26:28;;;;;;;15.23;5.80;;;;;;;-6.74;82.55;103235.78;4952113;28;20051;-80
2024/01/11 06:29:03;;;;;;;14.77;5.40;;;;;;;-6.76;82.91;103248.28;4955332;29;20034;-79
2024/01/11 06:31:28;;;;;;;15.77;5.53;;;;;;;-6.66;82.37;103272.75;4954845;29;20479;-79
2024/01/11 06:34:12;;;;;;;15.63;5.60;;;;;;;-6.65;82.37;103264.41;4955230;29;20034;-80
2024/01/11 06:36:38;;;;;;;14.85;6.03;;;;;;;-6.68;82.50;103252.41;4954765;29;20019;-79
2024/01/11 06:39:21;;;;;;;16.55;6.20;;;;;;;-6.56;82.31;103269.44;4956394;29;20027;-80
2024/01/11 06:41:47;;;;;;;15.88;6.40;;;;;;;-6.73;83.56;103256.13;4954761;29;20035;-79
2024/01/11 06:44:20;;;;;;;15.70;5.88;;;;;;;-6.83;82.27;103253.47;4953936;28;20384;-80
2024/01/11 06:46:48;;;;;;;16.90;6.32;;;;;;;-6.76;82.64;103276.06;4970866;28;20055;-80
2024/01/11 06:49:32;;;;;;;18.67;6.70;;;;;;;-6.82;82.35;103265.34;4974555;28;20400;-80
2024/01/11 06:52:25;;;;;;;17.85;6.75;;;;;;;-6.69;82.39;103301.13;4974053;28;20057;-79
2024/01/11 06:54:50;;;;;;;18.80;6.82;;;;;;;-6.74;82.76;103279.59;4974089;28;20498;-79
2024/01/11 06:57:50;;;;;;;16.55;6.47;;;;;;;-6.84;82.06;103279.47;4974705;28;20031;-80
2024/01/11 07:00:34;;;;;;;17.05;6.60;;;;;;;-6.88;82.63;103278.28;4974369;28;20030;-79
2024/01/11 07:02:59;;;;;;;15.63;6.10;;;;;;;-6.79;82.31;103290.91;4974253;28;20058;-80
2024/01/11 07:06:03;;;;;;;18.77;7.43;;;;;;;-6.72;82.27;103305.00;4973842;28;20054;-79
2024/01/11 07:09:10;;;;;;;16.65;6.50;;;;;;;-6.74;82.21;103317.47;4974403;28;20015;-80
2024/01/11 07:11:43;;;;;;;17.40;6.43;;;;;;;-6.88;81.83;103301.00;4953823;28;20057;-79
2024/01/11 07:14:08;;;;;;;21.98;8.88;;;;;;;-6.84;86.78;103332.50;4954934;28;20472;-80
2024/01/11 07:16:54;;;;;;;20.17;8.48;;;;;;;-6.87;84.34;103333.09;4954816;28;20078;-79
2024/01/11 07:19:22;;;;;;;22.08;8.73;;;;;;;-6.92;86.24;103333.41;4953336;29;20046;-81
2024/01/11 07:21:47;;;;;;;21.55;8.65;;;;;;;-7.10;86.79;103307.28;4954088;28;20449;-80
2024/01/11 07:24:37;;;;;;;19.42;7.97;;;;;;;-7.03;85.60;103318.13;4954921;29;20055;-79
2024/01/11 07:27:21;;;;;;;17.80;7.22;;;;;;;-7.09;85.29;103309.06;4933669;29;20043;-80
2024/01/11 07:29:49;;;;;;;17.38;6.70;;;;;;;-7.08;84.98;103315.88;4954268;28;20542;-79
2024/01/11 07:32:17;;;;;;;19.73;8.25;;;;;;;-7.04;87.00;103328.94;4954480;28;20027;-77
2024/01/11 07:37:10;;;;;;;18.58;7.40;;;;;;;-7.02;86.91;103336.66;5139249;23;20127;-80
2024/01/11 07:39:41;;;;;;;17.98;7.25;;;;;;;-7.02;85.96;103327.47;4973658;28;20481;-80
2024/01/11 07:42:06;;;;;;;16.42;6.38;;;;;;;-7.04;86.62;103323.91;4972689;28;20078;-79
2024/01/11 07:53:16;;;;;;;20.70;7.93;;;;;;;-7.06;87.25;103327.91;4954262;29;20547;-79
2024/01/11 07:56:13;;;;;;;19.73;8.35;;;;;;;-7.02;87.12;103327.47;4952711;29;20023;-80
2024/01/11 08:02:44;;;;;;;21.65;8.82;;;;;;;-7.04;88.87;103336.53;4957677;29;20042;-79
2024/01/11 08:06:02;;;;;;;21.55;8.48;;;;;;;-7.02;87.32;103322.41;4917557;29;20060;-79
2024/01/11 08:08:40;;;;;;;18.67;7.43;;;;;;;-7.05;86.46;103303.56;4916780;29;20032;-80
2024/01/11 08:11:15;;;;;;;17.77;6.97;;;;;;;-7.18;86.04;103284.72;4917959;29;20047;-80
2024/01/11 08:13:49;;;;;;;17.85;6.75;;;;;;;-7.06;86.94;103301.78;4917427;29;20047;-79
2024/01/11 08:19:48;;;;;;;16.77;5.93;;;;;;;-6.87;85.41;103305.31;4972020;23;20138;-79
2024/01/11 08:23:13;;;;;;;17.50;6.40;;;;;;;-6.78;85.64;103311.97;4956937;29;20455;-78
2024/01/11 08:26:32;;;;;;;14.70;5.93;;;;;;;-6.73;86.23;103310.81;4957442;29;20094;-79
2024/01/11 08:42:28;;;;;;;22.30;10.00;;;;;;;-6.59;89.39;103307.97;5810848;23;20062;-78
2024/01/11 08:44:54;;;;;;;23.17;10.13;;;;;;;-6.55;89.54;103307.47;4957065;29;20035;-78
2024/01/11 08:47:19;;;;;;;22.23;10.23;;;;;;;-6.52;90.51;103314.44;4959015;29;20028;-79
2024/01/11 08:49:45;;;;;;;23.27;9.68;;;;;;;-6.46;88.95;103312.53;4958718;29;20372;-79
2024/01/11 08:52:10;;;;;;;21.70;9.63;;;;;;;-6.42;89.58;103319.66;4957146;29;20031;-80
2024/01/11 08:54:35;;;;;;;27.10;13.55;;;;;;;-6.43;92.26;103327.06;4956930;29;20047;-80
2024/01/11 08:57:01;;;;;;;27.20;13.90;;;;;;;-6.39;92.08;103332.56;4957277;29;20074;-80
2024/01/11 08:59:26;;;;;;;27.67;13.00;;;;;;;-6.37;92.16;103338.66;4956587;29;20046;-80
2024/01/11 09:01:52;;;;;;;29.50;14.80;;;;;;;-6.32;92.23;103345.78;4956481;29;20050;-80
2024/01/11 09:04:18;;;;;;;29.77;14.10;;;;;;;-6.33;92.21;103331.38;4956345;29;20078;-80
2024/01/11 09:06:44;;;;;;;29.88;15.05;;;;;;;-6.27;92.82;103337.88;4957143;29;20055;-80
2024/01/11 09:09:10;;;;;;;28.20;13.60;;;;;;;-6.23;91.62;103334.00;4957062;28;20106;-80
2024/01/11 09:14:23;;;;;;;28.52;14.43;;;;;;;-6.08;92.24;103332.88;5037437;23;20056;-81
2024/01/11 09:17:06;;;;;;;31.27;15.13;;;;;;;-6.12;92.43;103320.72;4938854;29;20370;-82
2024/01/11 09:19:48;;;;;;;30.23;15.13;;;;;;;-6.03;92.01;103320.69;5246766;23;20055;-81
2024/01/11 09:22:17;;;;;;;27.33;13.98;;;;;;;-5.79;91.90;103344.78;5225557;23;20063;-81
2024/01/11 09:24:42;;;;;;;29.30;14.73;;;;;;;-5.74;91.80;103361.25;4955522;29;20039;-81
2024/01/11 09:27:13;;;;;;;28.83;15.00;;;;;;;-5.67;91.81;103355.13;4954850;29;20035;-80
2024/01/11 09:29:45;;;;;;;27.77;14.27;;;;;;;-5.63;90.92;103353.78;4955817;29;20027;-82
2024/01/11 09:32:11;;;;;;;27.38;13.50;;;;;;;-5.49;90.54;103371.09;5257450;23;1102365;-81
2024/01/11 09:34:37;;;;;;;26.52;13.18;;;;;;;-5.38;90.83;103366.13;4956026;29;20550;-82
2024/01/11 09:37:03;;;;;;;28.27;14.35;;;;;;;-5.31;90.70;103371.00;4956891;29;20020;-86
2024/01/11 09:39:29;;;;;;;27.23;14.30;;;;;;;-5.21;90.24;103381.22;4956426;29;20024;-84
2024/01/11 09:42:09;;;;;;;28.80;14.68;;;;;;;-5.12;90.24;103381.13;4956315;29;20035;-82
2024/01/11 09:44:37;;;;;;;32.03;16.15;;;;;;;-5.05;89.72;103386.00;4956252;29;20031;-82
2024/01/11 11:13:35;;;;;;;34.53;18.85;;;;;;;-2.36;74.76;103394.91;4992850;28;20085;-80
2024/01/11 11:16:50;;;;;;;31.13;17.45;;;;;;;-2.20;75.71;103411.38;4990688;28;20483;-82
2024/01/11 11:19:22;;;;;;;34.73;19.57;;;;;;;-2.33;73.37;103397.69;4973057;28;20031;-81
2024/01/11 11:22:37;;;;;;;33.45;18.70;;;;;;;-2.13;73.93;103428.03;4971704;28;20464;-80
2024/01/11 11:33:44;;;;;;;34.88;19.33;;;;;;;-1.93;71.37;103433.00;5489384;23;20096;-81
2024/01/11 11:36:28;;;;;;;31.58;17.45;;;;;;;-1.86;72.89;103426.75;4958144;29;20484;-81
2024/01/11 11:39:00;;;;;;;29.17;16.20;;;;;;;-1.74;73.41;103420.06;4957960;29;20019;-80
2024/01/11 11:41:26;;;;;;;32.22;17.85;;;;;;;-1.71;71.30;103404.13;4958509;29;20394;-81
2024/01/11 11:43:51;;;;;;;33.30;18.65;;;;;;;-1.67;70.54;103426.50;4958318;29;20031;-81
2024/01/11 11:46:17;;;;;;;33.55;18.83;;;;;;;-1.66;70.12;103419.75;4957484;29;20090;-81
2024/01/11 11:48:49;;;;;;;35.72;19.65;;;;;;;-1.67;68.90;103430.69;4958020;29;20093;-83
2024/01/11 11:51:16;;;;;;;32.83;18.38;;;;;;;-1.59;71.51;103435.63;4958655;29;20031;-82
2024/01/11 11:57:18;;;;;;;;;;;;;;;;;;;;;
2024/01/11 12:03:41;;;;;;;34.63;19.15;;;;;;;-1.66;69.01;103400.28;4958514;29;20050;-81
2024/01/11 12:08:48;;;;;;;34.35;19.00;;;;;;;-1.46;67.82;103411.94;5244418;23;20058;-81
2024/01/11 12:11:34;;;;;;;34.55;19.52;;;;;;;-1.50;66.70;103399.78;4958125;29;20106;-80
2024/01/11 12:17:42;;;;;;;34.95;19.08;;;;;;;-1.47;67.38;103387.28;4940747;29;20043;-81
2024/01/11 12:20:30;;;;;;;34.55;19.65;;;;;;;-1.36;66.83;103407.56;4937785;29;20039;-81
2024/01/11 12:26:23;;;;;;;34.42;18.70;;;;;;;-1.55;67.19;103370.50;4958073;29;20042;-81
2024/01/11 12:29:26;;;;;;;36.50;20.17;;;;;;;-1.45;66.99;103390.81;4956457;29;20023;-81
2024/01/11 12:36:15;;;;;;;34.35;19.58;;;;;;;-1.51;67.06;103364.88;4878902;29;20073;-81
2024/01/11 12:39:16;;;;;;;35.53;18.98;;;;;;;-1.36;66.35;103397.38;4842301;29;20053;-81
2024/01/11 12:45:31;;;;;;;34.65;17.88;;;;;;;-1.29;66.73;103385.19;4841605;29;20474;-81
2024/01/11 12:51:49;;;;;;;33.97;18.75;;;;;;;-1.52;67.76;103365.66;4847360;29;20525;-81
2024/01/11 13:00:50;;;;;;;33.88;19.17;;;;;;;-1.46;70.71;103367.78;4866366;29;20136;-82
2024/01/11 13:18:15;;;;;;;34.47;18.52;;;;;;;-1.12;74.88;103401.75;4877913;29;20093;-82
2024/01/11 13:30:18;;;;;;;25.33;11.48;;;;;;;-1.07;87.15;103401.19;5047966;23;20138;-83
2024/01/11 13:36:24;;;;;;;23.33;10.23;;;;;;;-1.16;91.50;103381.00;4956631;29;20406;-82
2024/01/11 13:42:45;;;;;;;23.70;9.50;;;;;;;-1.59;96.70;103368.53;5159165;23;20084;-82
2024/01/11 13:45:11;;;;;;;24.02;9.32;;;;;;;-1.57;99.66;103392.44;4915666;29;20047;-82
2024/01/11 13:52:53;;;;;;;22.15;8.20;;;;;;;-1.80;100.00;103386.47;4934458;29;20058;-82
2024/01/11 13:58:28;;;;;;;21.17;7.57;;;;;;;-1.60;100.00;103404.94;3286964;23;20411;-83
2024/01/11 14:01:12;;;;;;;22.65;8.73;;;;;;;-1.69;100.00;103382.22;4974386;28;20030;-83
2024/01/11 14:04:40;;;;;;;;;;;;;;;;;;;;;
2024/01/11 14:08:05;;;;;;;22.55;8.25;;;;;;;-1.47;100.00;103400.03;4939491;28;20043;-81
2024/01/11 14:10:49;;;;;;;20.67;7.20;;;;;;;-1.53;100.00;103371.53;4952281;28;20042;-81
2024/01/11 14:13:27;;;;;;;21.48;7.72;;;;;;;-1.48;100.00;103379.50;4975074;28;20069;-80
2024/01/11 14:15:55;;;;;;;21.77;8.18;;;;;;;-1.47;100.00;103374.53;4974072;28;20081;-80
2024/01/11 14:18:23;;;;;;;20.45;7.65;;;;;;;-1.44;100.00;103373.88;4953452;28;20105;-80
2024/01/11 14:24:15;;;;;;;23.25;9.05;;;;;;;-1.63;100.00;103361.41;4915172;29;20493;-81
2024/01/11 14:37:33;;;;;;;21.20;7.03;;;;;;;-1.43;100.00;103365.47;4804420;29;20519;-81
2024/01/11 14:39:59;;;;;;;19.40;6.47;;;;;;;-1.49;100.00;103348.06;4759338;29;20093;-80
2024/01/11 14:46:48;;;;;;;16.67;5.78;;;;;;;-1.26;100.00;103372.69;4756595;30;20105;-80
2024/01/11 14:49:42;;;;;;;16.40;5.25;;;;;;;-1.20;100.00;103358.66;4771675;29;20071;-81
2024/01/11 14:55:27;;;;;;;15.18;4.63;;;;;;;-1.26;99.48;103336.16;4918887;29;20112;-81
2024/01/11 14:58:29;;;;;;;14.77;4.72;;;;;;;-1.05;99.20;103354.66;4915773;29;20097;-81
2024/01/11 15:00:55;;;;;;;11.00;4.00;;;;;;;-1.13;98.76;103327.72;4916861;29;20107;-81
2024/01/11 15:04:15;;;;;;;9.93;3.67;;;;;;;-0.98;99.03;103351.78;4916022;29;20128;-81
2024/01/11 15:06:56;;;;;;;10.77;3.67;;;;;;;-1.05;98.46;103334.25;4916477;29;20028;-81
2024/01/11 15:09:35;;;;;;;11.73;4.28;;;;;;;-1.05;97.00;103318.09;4916620;29;20036;-81
2024/01/11 15:19:00;;;;;;;15.23;4.85;;;;;;;-0.95;97.58;103335.81;4932573;29;20138;-81
2024/01/11 15:25:29;;;;;;;12.68;4.40;;;;;;;-0.95;97.37;103340.91;4857651;29;20056;-88
2024/01/11 15:31:20;;;;;;;9.48;3.50;;;;;;;-0.94;97.60;103347.81;5091581;23;20013;-80
2024/01/11 15:33:45;;;;;;;9.95;3.60;;;;;;;-0.91;96.75;103342.03;4934123;29;20020;-80
2024/01/11 15:36:14;;;;;;;8.30;3.33;;;;;;;-0.89;97.17;103340.47;4935742;29;20031;-80
2024/01/11 15:38:49;;;;;;;9.32;3.22;;;;;;;-0.89;97.11;103343.91;4934355;29;20039;-80
2024/01/11 15:41:14;;;;;;;8.90;3.10;;;;;;;-0.91;97.27;103332.72;4935558;29;20023;-80
2024/01/11 15:43:39;;;;;;;8.40;3.25;;;;;;;-0.91;96.88;103325.09;4935191;29;20034;-80
2024/01/11 15:46:05;;;;;;;7.78;3.00;;;;;;;-0.91;96.73;103321.63;4934759;29;20020;-81
2024/01/11 15:48:30;;;;;;;7.43;2.92;;;;;;;-0.85;96.92;103333.16;4949227;29;20063;-80
2024/01/11 15:50:57;;;;;;;6.22;2.85;;;;;;;-0.84;96.84;103334.03;4954606;29;20073;-81
2024/01/11 15:53:22;;;;;;;6.55;2.83;;;;;;;-0.82;96.70;103324.84;4954260;29;20031;-82
2024/01/11 15:55:49;;;;;;;6.50;2.88;;;;;;;-0.86;96.58;103323.72;4954271;29;20500;-82
2024/01/11 15:58:15;;;;;;;7.03;3.00;;;;;;;-0.88;96.46;103332.94;4953686;29;20028;-82
2024/01/11 16:09:01;;;;;;;7.35;3.00;;;;;;;-0.81;97.38;103331.72;4876354;29;20525;-81
2024/01/11 16:12:25;;;;;;;9.48;3.30;;;;;;;-0.81;96.67;103340.25;4893738;29;20124;-80
2024/01/11 16:14:51;;;;;;;10.70;3.30;;;;;;;-0.94;96.92;103312.09;4893828;29;20041;-80
2024/01/11 16:17:28;;;;;;;9.07;3.13;;;;;;;-0.86;97.01;103336.47;4891143;29;20467;-80
2024/01/11 16:20:12;;;;;;;7.80;2.80;;;;;;;-0.83;97.06;103335.81;4877059;29;20029;-80
2024/01/11 16:23:01;;;;;;;8.63;3.17;;;;;;;-0.76;96.59;103355.00;4902083;29;20040;-82
2024/01/11 16:28:45;;;;;;;8.93;3.10;;;;;;;-0.78;96.34;103330.25;4916086;29;20047;-82
2024/01/11 16:31:51;;;;;;;9.23;3.35;;;;;;;-0.71;96.49;103339.25;4938356;29;20027;-82
2024/01/11 16:37:49;;;;;;;10.90;3.70;;;;;;;-0.71;96.57;103326.50;4938323;29;20046;-82
2024/01/11 16:40:14;;;;;;;9.30;3.60;;;;;;;-0.74;96.57;103316.09;4938284;29;20032;-82
2024/01/11 16:42:39;;;;;;;11.52;3.75;;;;;;;-0.81;96.68;103311.31;4937439;29;20031;-82
2024/01/11 16:51:46;;;;;;;9.55;3.50;;;;;;;-0.63;96.44;103325.41;4957312;29;19942;-82
2024/01/11 16:54:26;;;;;;;9.43;3.28;;;;;;;-0.68;96.77;103318.19;4957529;29;20081;-82
2024/01/11 16:56:58;;;;;;;7.97;3.08;;;;;;;-0.66;96.40;103316.59;4955723;29;20174;-82
2024/01/11 16:59:23;;;;;;;9.75;3.50;;;;;;;-0.70;96.37;103312.09;4957135;29;20031;-82
2024/01/11 17:01:57;;;;;;;9.20;3.25;;;;;;;-0.71;97.69;103317.97;4953875;28;20058;-83
2024/01/11 17:04:49;;;;;;;7.78;3.15;;;;;;;-0.62;96.85;103327.13;4956351;29;20539;-83
2024/01/11 17:07:29;;;;;;;7.78;2.90;;;;;;;-0.75;97.55;103298.13;4962579;23;20031;-82
2024/01/11 17:10:31;;;;;;;8.18;3.13;;;;;;;-0.81;97.02;103293.47;4937019;29;20028;-83
2024/01/11 17:13:31;;;;;;;7.78;3.15;;;;;;;-0.61;97.09;103320.38;4919226;29;20146;-83
2024/01/11 17:15:56;;;;;;;8.32;3.00;;;;;;;-0.66;97.18;103316.59;5034586;23;20044;-83
2024/01/11 17:18:24;;;;;;;10.43;3.63;;;;;;;-0.64;97.38;103333.81;4956076;29;20035;-83
2024/01/11 17:20:53;;;;;;;8.73;3.00;;;;;;;-0.68;97.43;103328.41;4955784;29;20049;-82
2024/01/11 17:28:18;;;;;;;8.77;3.30;;;;;;;-0.69;98.39;103339.38;5037338;23;20291;-81
2024/01/11 17:30:43;;;;;;;7.97;3.15;;;;;;;-0.70;98.31;103346.13;4936492;29;20035;-80
2024/01/11 17:33:09;;;;;;;7.07;3.05;;;;;;;-0.73;98.26;103339.91;4937299;29;20469;-81
2024/01/11 17:35:35;;;;;;;6.38;2.80;;;;;;;-0.71;98.46;103346.88;4937181;29;20163;-82
2024/01/11 17:38:00;;;;;;;8.18;3.33;;;;;;;-0.73;98.06;103345.88;4936572;29;20035;-80
2024/01/11 17:40:29;;;;;;;8.82;3.33;;;;;;;-0.72;98.11;103340.00;4937445;29;20039;-81
2024/01/11 17:42:58;;;;;;;7.10;3.05;;;;;;;-0.69;98.71;103349.56;4937468;29;20381;-80
2024/01/11 17:45:24;;;;;;;9.75;3.63;;;;;;;-0.71;98.26;103341.78;4933578;29;20027;-81
2024/01/11 17:47:52;;;;;;;9.95;3.80;;;;;;;-0.68;98.27;103343.69;4941663;29;20489;-81
2024/01/11 17:50:29;;;;;;;9.85;3.42;;;;;;;-0.69;98.56;103336.81;4955841;29;20519;-81
2024/01/11 17:52:58;;;;;;;9.40;3.42;;;;;;;-0.70;98.95;103338.47;4955009;29;20033;-83
2024/01/11 17:55:33;;;;;;;8.30;3.42;;;;;;;-0.72;98.87;103329.81;4956220;29;20028;-83
2024/01/11 17:58:04;;;;;;;7.97;2.95;;;;;;;-0.86;98.88;103305.00;4956483;29;20027;-82
2024/01/11 18:00:33;;;;;;;9.57;3.83;;;;;;;-0.84;98.25;103303.44;4954699;29;20472;-80
2024/01/11 18:06:21;;;;;;;9.85;3.55;;;;;;;-0.78;98.44;103314.97;4951148;29;20113;-80
2024/01/11 18:08:57;;;;;;;8.38;3.38;;;;;;;-0.72;98.13;103329.81;4955772;29;20027;-80
2024/01/11 18:11:34;;;;;;;8.82;3.47;;;;;;;-0.69;98.34;103334.28;4955347;29;20024;-81
2024/01/11 18:14:15;;;;;;;8.85;3.55;;;;;;;-0.70;98.34;103332.50;4955047;29;20022;-80
2024/01/11 18:17:08;;;;;;;9.40;3.53;;;;;;;-0.63;98.77;103345.78;4955753;29;20027;-81
2024/01/11 18:20:07;;;;;;;9.07;3.42;;;;;;;-0.65;99.09;103343.88;4917680;29;20062;-80
2024/01/11 18:25:38;;;;;;;8.05;3.10;;;;;;;-0.75;99.59;103331.25;4917507;29;20043;-81
2024/01/11 18:29:00;;;;;;;8.40;3.08;;;;;;;-0.70;99.61;103330.81;4915951;29;20048;-81
2024/01/11 18:31:25;;;;;;;8.82;3.30;;;;;;;-0.70;100.00;103340.16;4917819;29;20123;-81
2024/01/11 18:34:21;;;;;;;9.20;3.53;;;;;;;-0.82;99.93;103319.72;4916392;29;20127;-80
2024/01/11 18:37:24;;;;;;;10.60;3.67;;;;;;;-0.86;98.76;103300.78;4917107;29;20042;-80
2024/01/11 18:40:22;;;;;;;11.02;3.88;;;;;;;-0.75;100.00;103321.06;4839567;29;20090;-81
2024/01/11 18:43:05;;;;;;;9.13;3.47;;;;;;;-0.83;99.91;103316.31;4844326;29;20037;-80
2024/01/11 18:45:43;;;;;;;9.68;3.50;;;;;;;-0.80;100.00;103319.09;4964627;23;20071;-80
2024/01/11 18:48:17;;;;;;;11.20;3.90;;;;;;;-0.90;100.00;103298.78;4960909;23;20058;-80
2024/01/11 18:50:52;;;;;;;10.15;3.75;;;;;;;-0.78;100.00;103332.81;4954940;29;20032;-80
2024/01/11 18:54:06;;;;;;;9.70;3.33;;;;;;;-0.77;100.00;103336.25;4954808;29;20485;-81
2024/01/11 18:56:51;;;;;;;10.00;3.63;;;;;;;-0.77;100.00;103336.25;4945253;23;20122;-80
2024/01/11 18:59:20;;;;;;;8.70;3.30;;;;;;;-0.94;100.00;103307.00;4934410;29;20437;-81
2024/01/11 19:01:48;;;;;;;9.57;3.42;;;;;;;-0.89;100.00;103309.88;4935551;29;20063;-80
2024/01/11 19:07:08;;;;;;;7.88;3.10;;;;;;;-0.73;100.00;103327.16;4935867;29;20031;-80
2024/01/11 19:09:57;;;;;;;8.73;3.50;;;;;;;-0.71;100.00;103328.16;4934403;29;20039;-80
2024/01/11 19:17:35;;;;;;;7.55;3.08;;;;;;;-0.75;100.00;103314.31;5018303;23;20415;-80
2024/01/11 19:20:01;;;;;;;8.32;3.10;;;;;;;-0.79;100.00;103310.63;4955042;29;20027;-80
2024/01/11 19:22:26;;;;;;;8.20;3.28;;;;;;;-0.79;100.00;103308.09;4954538;29;20479;-80
2024/01/11 19:24:52;;;;;;;8.65;3.30;;;;;;;-0.75;100.00;103321.06;4953368;29;20110;-80
2024/01/11 19:27:17;;;;;;;7.32;3.03;;;;;;;-0.78;100.00;103321.75;4954855;29;20027;-80